createdAt,value
2017-09-26T00:01:31.305Z,57.80
2017-09-26T00:04:07.401Z,57.80
2017-09-26T00:06:38.236Z,57.80
2017-09-26T00:11:41.580Z,57.70
2017-09-26T00:14:13.115Z,57.80
2017-09-26T00:16:42.733Z,57.80
2017-09-26T00:19:12.040Z,57.90
2017-09-26T00:21:43.179Z,57.90
2017-09-26T00:24:12.993Z,57.80
2017-09-26T00:26:41.402Z,57.80
2017-09-26T00:29:09.651Z,57.80
2017-09-26T00:31:37.900Z,57.70
2017-09-26T00:34:06.197Z,57.60
2017-09-26T00:36:35.244Z,57.60
2017-09-26T00:39:05.116Z,57.60
2017-09-26T00:41:33.471Z,57.60
2017-09-26T00:44:02.476Z,57.00
2017-09-26T00:46:31.613Z,57.50
2017-09-26T00:48:59.899Z,57.50
2017-09-26T00:51:28.164Z,57.40
2017-09-26T00:53:57.421Z,57.50
2017-09-26T00:56:26.457Z,57.40
2017-09-26T00:58:54.744Z,57.40
2017-09-26T01:01:23.037Z,57.40
2017-09-26T01:03:57.487Z,57.40
2017-09-26T01:06:26.387Z,57.40
2017-09-26T01:08:54.669Z,57.40
2017-09-26T01:11:22.975Z,57.40
2017-09-26T01:13:51.253Z,57.40
2017-09-26T01:16:21.618Z,57.40
2017-09-26T01:18:50.014Z,57.50
2017-09-26T01:21:18.431Z,57.50
2017-09-26T01:23:46.847Z,57.50
2017-09-26T01:26:17.785Z,57.60
2017-09-26T01:28:47.005Z,57.60
2017-09-26T01:31:15.408Z,57.50
2017-09-26T01:33:43.773Z,57.60
2017-09-26T01:36:12.967Z,57.60
2017-09-26T01:38:41.182Z,57.70
2017-09-26T01:41:21.289Z,57.70
2017-09-26T01:43:49.592Z,57.60
2017-09-26T01:46:17.843Z,57.70
2017-09-26T01:48:46.099Z,57.70
2017-09-26T01:51:15.837Z,57.60
2017-09-26T01:53:45.310Z,57.50
2017-09-26T01:56:23.519Z,57.50
2017-09-26T01:58:53.013Z,57.50
2017-09-26T02:01:22.397Z,57.50
2017-09-26T02:03:50.892Z,57.50
2017-09-26T02:06:19.192Z,57.40
2017-09-26T02:08:47.465Z,57.50
2017-09-26T02:11:15.861Z,57.40
2017-09-26T02:13:44.109Z,57.40
2017-09-26T02:16:13.144Z,57.40
2017-09-26T02:18:42.536Z,57.30
2017-09-26T02:21:11.646Z,57.40
2017-09-26T02:23:40.609Z,57.30
2017-09-26T02:26:08.932Z,57.40
2017-09-26T02:28:37.252Z,57.40
2017-09-26T02:31:05.505Z,57.40
2017-09-26T02:33:33.747Z,57.50
2017-09-26T02:36:02.467Z,57.50
2017-09-26T02:38:31.424Z,57.60
2017-09-26T02:40:59.661Z,57.60
2017-09-26T02:43:27.904Z,57.60
2017-09-26T02:45:56.144Z,57.60
2017-09-26T02:48:24.345Z,57.60
2017-09-26T02:50:52.556Z,57.50
2017-09-26T02:53:21.178Z,57.50
2017-09-26T02:55:49.358Z,57.50
2017-09-26T02:58:17.562Z,57.40
2017-09-26T03:00:46.907Z,57.40
2017-09-26T03:03:15.127Z,57.40
2017-09-26T03:05:43.345Z,57.30
2017-09-26T03:08:11.909Z,57.30
2017-09-26T03:10:40.911Z,57.30
2017-09-26T03:13:09.193Z,57.30
2017-09-26T03:15:37.428Z,57.40
2017-09-26T03:18:05.626Z,57.50
2017-09-26T03:20:34.574Z,57.60
2017-09-26T03:23:02.786Z,57.60
2017-09-26T03:25:32.847Z,57.60
2017-09-26T03:28:01.099Z,57.50
2017-09-26T03:30:29.392Z,57.50
2017-09-26T03:32:57.623Z,57.50
2017-09-26T03:35:26.632Z,57.90
2017-09-26T03:37:54.978Z,57.40
2017-09-26T03:40:23.945Z,57.80
2017-09-26T03:42:52.185Z,57.30
2017-09-26T03:45:20.443Z,57.30
2017-09-26T03:47:48.734Z,57.40
2017-09-26T03:50:17.018Z,57.40
2017-09-26T03:52:45.627Z,57.60
2017-09-26T03:55:13.830Z,57.60
2017-09-26T03:57:42.850Z,57.70
2017-09-26T04:00:11.125Z,57.60
2017-09-26T04:02:39.347Z,57.70
2017-09-26T04:05:07.618Z,57.80
2017-09-26T04:07:35.840Z,57.90
2017-09-26T04:10:04.411Z,57.90
2017-09-26T04:12:33.373Z,57.80
2017-09-26T04:15:01.584Z,57.80
2017-09-26T04:17:30.601Z,57.70
2017-09-26T04:19:58.818Z,57.70
2017-09-26T04:22:27.843Z,57.80
2017-09-26T04:24:56.071Z,57.70
2017-09-26T04:27:24.757Z,57.70
2017-09-26T04:29:52.983Z,57.70
2017-09-26T04:32:21.236Z,57.60
2017-09-26T04:34:50.257Z,57.60
2017-09-26T04:37:18.504Z,57.60
2017-09-26T04:39:47.523Z,57.80
2017-09-26T04:42:15.775Z,57.60
2017-09-26T04:44:44.776Z,57.70
2017-09-26T04:47:12.988Z,57.60
2017-09-26T04:49:41.221Z,57.60
2017-09-26T04:52:09.468Z,57.70
2017-09-26T04:54:38.784Z,58.20
2017-09-26T04:57:07.810Z,57.70
2017-09-26T04:59:36.142Z,57.70
2017-09-26T05:02:04.356Z,57.70
2017-09-26T05:04:32.575Z,57.80
2017-09-26T05:07:00.820Z,57.80
2017-09-26T05:09:29.531Z,57.70
2017-09-26T05:11:57.803Z,57.70
2017-09-26T05:14:26.041Z,57.80
2017-09-26T05:16:54.255Z,57.70
2017-09-26T05:19:22.506Z,57.70
2017-09-26T05:21:51.223Z,57.70
2017-09-26T05:24:19.506Z,57.70
2017-09-26T05:26:47.748Z,57.70
2017-09-26T05:29:15.989Z,57.60
2017-09-26T05:31:44.963Z,57.70
2017-09-26T05:34:14.284Z,57.70
2017-09-26T05:36:42.647Z,57.70
2017-09-26T05:39:11.680Z,57.60
2017-09-26T05:41:39.967Z,57.60
2017-09-26T05:44:08.224Z,57.60
2017-09-26T05:46:36.457Z,57.50
2017-09-26T05:49:04.667Z,57.60
2017-09-26T05:51:32.877Z,57.60
2017-09-26T05:54:01.155Z,57.50
2017-09-26T05:56:29.405Z,57.50
2017-09-26T05:58:57.703Z,58.00
2017-09-26T06:01:26.383Z,57.40
2017-09-26T06:03:54.592Z,57.40
2017-09-26T06:06:22.821Z,57.40
2017-09-26T06:08:51.032Z,57.40
2017-09-26T06:11:19.251Z,57.50
2017-09-26T06:13:47.448Z,57.50
2017-09-26T06:16:15.634Z,57.50
2017-09-26T06:18:44.296Z,57.50
2017-09-26T06:21:12.491Z,57.50
2017-09-26T06:23:40.717Z,57.40
2017-09-26T06:26:08.911Z,57.50
2017-09-26T06:28:37.356Z,57.50
2017-09-26T06:31:06.338Z,57.50
2017-09-26T06:33:38.029Z,57.50
2017-09-26T06:36:06.303Z,57.40
2017-09-26T06:38:34.517Z,57.50
2017-09-26T06:41:02.720Z,57.40
2017-09-26T06:43:31.712Z,57.50
2017-09-26T06:46:00.703Z,57.50
2017-09-26T06:48:29.695Z,57.50
2017-09-26T06:50:57.948Z,57.50
2017-09-26T06:53:26.246Z,57.40
2017-09-26T06:55:55.261Z,57.40
2017-09-26T06:58:24.230Z,57.40
2017-09-26T07:00:53.220Z,57.50
2017-09-26T07:03:21.530Z,57.40
2017-09-26T07:05:49.736Z,57.40
2017-09-26T07:08:18.005Z,57.40
2017-09-26T07:10:48.873Z,58.00
2017-09-26T07:13:18.002Z,57.50
2017-09-26T07:15:46.273Z,57.40
2017-09-26T07:18:14.498Z,57.40
2017-09-26T07:20:42.789Z,57.50
2017-09-26T07:23:11.040Z,57.40
2017-09-26T07:25:39.286Z,58.00
2017-09-26T07:28:07.603Z,57.40
2017-09-26T07:30:35.854Z,57.40
2017-09-26T07:33:04.102Z,57.40
2017-09-26T07:35:32.380Z,57.40
2017-09-26T07:38:00.664Z,57.40
2017-09-26T07:40:29.211Z,57.40
2017-09-26T07:42:57.430Z,57.40
2017-09-26T07:45:25.681Z,57.40
2017-09-26T07:47:53.921Z,57.40
2017-09-26T07:50:22.907Z,57.40
2017-09-26T07:52:51.928Z,57.50
2017-09-26T07:55:20.243Z,57.50
2017-09-26T07:57:48.960Z,57.40
2017-09-26T08:00:17.236Z,57.50
2017-09-26T08:02:46.247Z,57.40
2017-09-26T08:05:15.685Z,57.40
2017-09-26T08:07:44.248Z,57.40
2017-09-26T08:10:12.466Z,57.40
2017-09-26T08:12:40.666Z,57.50
2017-09-26T08:15:09.654Z,57.50
2017-09-26T08:17:37.839Z,57.40
2017-09-26T08:20:06.820Z,57.40
2017-09-26T08:22:35.026Z,57.50
2017-09-26T08:25:03.579Z,57.40
2017-09-26T08:27:31.771Z,57.50
2017-09-26T08:30:00.739Z,57.40
2017-09-26T08:32:28.956Z,57.40
2017-09-26T08:34:57.174Z,57.30
2017-09-26T08:37:25.849Z,57.30
2017-09-26T08:39:54.067Z,57.40
2017-09-26T08:42:23.023Z,57.30
2017-09-26T08:44:51.282Z,57.30
2017-09-26T08:47:19.477Z,57.30
2017-09-26T08:49:47.737Z,57.30
2017-09-26T08:52:15.974Z,57.30
2017-09-26T08:54:44.163Z,57.20
2017-09-26T08:57:12.408Z,57.20
2017-09-26T08:59:41.534Z,57.20
2017-09-26T09:02:09.756Z,57.20
2017-09-26T09:04:37.976Z,57.20
2017-09-26T09:07:06.240Z,57.20
2017-09-26T09:09:34.441Z,57.20
2017-09-26T09:12:02.644Z,57.20
2017-09-26T09:14:30.829Z,57.10
2017-09-26T09:16:59.040Z,57.10
2017-09-26T09:19:27.231Z,57.20
2017-09-26T09:21:55.443Z,57.20
2017-09-26T09:24:23.670Z,57.10
2017-09-26T09:26:51.953Z,57.10
2017-09-26T09:29:20.235Z,57.10
2017-09-26T09:31:48.418Z,57.00
2017-09-26T09:34:16.677Z,57.00
2017-09-26T09:36:44.878Z,57.00
2017-09-26T09:39:13.122Z,57.10
2017-09-26T09:41:41.350Z,57.10
2017-09-26T09:44:10.306Z,57.10
2017-09-26T09:46:38.483Z,57.00
2017-09-26T09:49:06.762Z,57.00
2017-09-26T09:51:35.019Z,57.00
2017-09-26T09:54:03.216Z,57.00
2017-09-26T09:56:31.424Z,57.10
2017-09-26T09:59:00.409Z,57.10
2017-09-26T10:01:29.417Z,57.10
2017-09-26T10:03:57.643Z,57.10
2017-09-26T10:06:25.892Z,57.10
2017-09-26T10:08:54.191Z,57.10
2017-09-26T10:11:22.530Z,57.10
2017-09-26T10:13:50.757Z,57.10
2017-09-26T10:16:19.003Z,57.10
2017-09-26T10:18:47.284Z,57.70
2017-09-26T10:21:15.539Z,57.10
2017-09-26T10:23:43.749Z,57.70
2017-09-26T10:26:11.956Z,57.10
2017-09-26T10:28:40.223Z,57.10
2017-09-26T10:31:08.440Z,57.10
2017-09-26T10:33:36.675Z,57.20
2017-09-26T10:36:04.904Z,57.20
2017-09-26T10:41:14.837Z,57.00
2017-09-26T10:43:43.816Z,57.10
2017-09-26T10:46:12.026Z,57.10
2017-09-26T10:48:40.284Z,57.10
2017-09-26T10:51:08.551Z,57.10
2017-09-26T10:53:36.840Z,57.10
2017-09-26T10:56:05.094Z,57.10
2017-09-26T10:58:33.368Z,57.00
2017-09-26T11:01:01.665Z,57.10
2017-09-26T11:03:29.917Z,57.10
2017-09-26T11:05:58.160Z,57.10
2017-09-26T11:08:26.424Z,57.10
2017-09-26T11:10:55.107Z,57.10
2017-09-26T11:13:24.165Z,57.10
2017-09-26T11:15:52.438Z,57.10
2017-09-26T11:18:21.489Z,57.10
2017-09-26T11:20:51.040Z,57.20
2017-09-26T11:23:19.323Z,57.10
2017-09-26T11:25:47.576Z,57.20
2017-09-26T11:28:15.809Z,57.20
2017-09-26T11:30:44.859Z,57.10
2017-09-26T11:33:13.072Z,57.10
2017-09-26T11:35:41.343Z,57.10
2017-09-26T11:38:09.601Z,57.10
2017-09-26T11:40:37.883Z,57.10
2017-09-26T11:43:06.094Z,57.20
2017-09-26T11:45:35.108Z,57.10
2017-09-26T11:48:03.374Z,57.20
2017-09-26T11:50:31.687Z,57.20
2017-09-26T11:52:59.906Z,57.20
2017-09-26T11:55:28.958Z,57.30
2017-09-26T11:57:57.224Z,57.30
2017-09-26T12:00:25.441Z,57.20
2017-09-26T12:02:53.695Z,57.20
2017-09-26T12:05:22.015Z,57.30
2017-09-26T12:07:50.245Z,57.30
2017-09-26T12:10:18.502Z,57.30
2017-09-26T12:12:52.352Z,57.20
2017-09-26T12:15:20.607Z,57.20
2017-09-26T12:17:48.859Z,57.20
2017-09-26T12:20:17.142Z,57.20
2017-09-26T12:22:45.577Z,57.20
2017-09-26T12:25:13.868Z,57.10
2017-09-26T12:27:42.149Z,57.10
2017-09-26T12:30:10.618Z,57.00
2017-09-26T12:32:38.949Z,57.00
2017-09-26T12:35:07.222Z,57.00
2017-09-26T12:37:35.536Z,57.00
2017-09-26T12:40:03.785Z,57.00
2017-09-26T12:42:32.795Z,56.90
2017-09-26T12:45:01.052Z,56.90
2017-09-26T12:47:30.132Z,57.00
2017-09-26T12:49:58.421Z,57.00
2017-09-26T12:52:26.720Z,57.00
2017-09-26T12:54:55.034Z,57.00
2017-09-26T12:57:23.277Z,56.90
2017-09-26T12:59:51.546Z,56.90
2017-09-26T13:02:20.732Z,56.90
2017-09-26T13:04:49.049Z,57.00
2017-09-26T13:07:17.329Z,56.90
2017-09-26T13:09:45.600Z,56.90
2017-09-26T13:12:13.861Z,57.00
2017-09-26T13:14:42.106Z,57.10
2017-09-26T13:17:11.168Z,57.10
2017-09-26T13:19:39.368Z,57.10
2017-09-26T13:22:08.383Z,57.10
2017-09-26T13:24:36.610Z,57.20
2017-09-26T13:27:04.930Z,57.20
2017-09-26T13:29:33.172Z,57.20
2017-09-26T13:32:01.439Z,57.20
2017-09-26T13:34:29.704Z,57.20
2017-09-26T13:36:57.944Z,57.30
2017-09-26T13:39:26.288Z,57.20
2017-09-26T13:41:55.360Z,57.20
2017-09-26T13:44:23.715Z,57.20
2017-09-26T13:46:51.970Z,57.10
2017-09-26T13:49:20.238Z,57.10
2017-09-26T13:51:48.532Z,57.10
2017-09-26T13:54:16.793Z,57.10
2017-09-26T13:56:45.018Z,57.10
2017-09-26T13:59:13.223Z,57.10
2017-09-26T14:01:41.469Z,57.20
2017-09-26T14:04:09.738Z,57.20
2017-09-26T14:06:37.951Z,57.60
2017-09-26T14:09:06.180Z,57.20
2017-09-26T14:11:35.249Z,57.20
2017-09-26T14:14:03.577Z,57.20
2017-09-26T14:16:32.732Z,57.20
2017-09-26T14:19:01.153Z,57.20
2017-09-26T14:21:30.160Z,57.20
2017-09-26T14:23:58.442Z,57.30
2017-09-26T14:26:27.685Z,57.20
2017-09-26T14:28:56.072Z,57.20
2017-09-26T14:31:24.375Z,57.30
2017-09-26T14:33:54.494Z,57.30
2017-09-26T14:36:23.252Z,57.20
2017-09-26T14:38:52.523Z,57.20
2017-09-26T14:41:20.920Z,57.10
2017-09-26T14:43:50.001Z,57.10
2017-09-26T14:46:23.126Z,57.10
2017-09-26T14:48:51.481Z,57.20
2017-09-26T14:51:20.522Z,57.30
2017-09-26T14:53:49.363Z,57.30
2017-09-26T14:56:18.447Z,57.30
2017-09-26T14:58:46.919Z,57.30
2017-09-26T15:01:15.194Z,57.20
2017-09-26T15:03:43.476Z,57.20
2017-09-26T15:06:11.757Z,57.20
2017-09-26T15:08:48.087Z,57.20
2017-09-26T15:11:16.918Z,57.30
2017-09-26T15:13:47.866Z,57.50
2017-09-26T15:16:19.478Z,57.30
2017-09-26T15:18:48.534Z,57.90
2017-09-26T15:21:18.690Z,57.40
2017-09-26T15:23:46.993Z,57.40
2017-09-26T15:26:15.194Z,57.40
2017-09-26T15:28:46.365Z,57.40
2017-09-26T15:31:14.759Z,57.40
2017-09-26T15:33:47.506Z,57.30
2017-09-26T15:36:16.523Z,57.30
2017-09-26T15:38:44.885Z,57.40
2017-09-26T15:41:13.232Z,57.40
2017-09-26T15:43:50.283Z,57.40
2017-09-26T15:46:18.627Z,57.40
2017-09-26T15:48:46.958Z,57.30
2017-09-26T15:51:21.347Z,57.30
2017-09-26T15:53:52.287Z,57.40
2017-09-26T15:56:20.640Z,57.40
2017-09-26T15:58:48.956Z,57.40
2017-09-26T16:01:17.266Z,57.40
2017-09-26T16:03:46.589Z,57.50
2017-09-26T16:06:14.879Z,57.40
2017-09-26T16:08:43.139Z,57.30
2017-09-26T16:11:11.388Z,57.30
2017-09-26T16:13:39.663Z,57.30
2017-09-26T16:16:13.129Z,57.40
2017-09-26T16:18:46.221Z,57.40
2017-09-26T16:21:19.730Z,57.40
2017-09-26T16:23:50.098Z,57.40
2017-09-26T16:26:21.899Z,57.40
2017-09-26T16:28:50.410Z,57.30
2017-09-26T16:33:55.674Z,57.30
2017-09-26T16:36:24.029Z,57.30
2017-09-26T16:38:52.249Z,57.30
2017-09-26T16:41:20.524Z,57.90
2017-09-26T16:43:49.656Z,57.30
2017-09-26T16:46:17.886Z,57.30
2017-09-26T16:48:46.127Z,57.40
2017-09-26T16:51:14.382Z,57.40
2017-09-26T16:53:42.636Z,57.40
2017-09-26T16:56:10.870Z,57.40
2017-09-26T16:58:39.859Z,57.40
2017-09-26T17:01:08.916Z,57.40
2017-09-26T17:03:37.503Z,57.40
2017-09-26T17:06:05.748Z,57.40
2017-09-26T17:08:33.958Z,57.30
2017-09-26T17:11:02.230Z,57.40
2017-09-26T17:13:30.499Z,57.40
2017-09-26T17:15:58.741Z,57.40
2017-09-26T17:18:26.978Z,57.40
2017-09-26T17:20:56.014Z,57.40
2017-09-26T17:23:24.313Z,57.40
2017-09-26T17:25:52.574Z,57.50
2017-09-26T17:28:22.056Z,57.50
2017-09-26T17:30:50.327Z,57.60
2017-09-26T17:33:18.625Z,57.60
2017-09-26T17:35:46.888Z,57.60
2017-09-26T17:38:15.245Z,57.60
2017-09-26T17:40:44.314Z,57.50
2017-09-26T17:43:12.528Z,57.50
2017-09-26T17:45:40.764Z,57.50
2017-09-26T17:48:09.038Z,57.50
2017-09-26T17:50:37.344Z,57.40
2017-09-26T17:53:05.761Z,57.40
2017-09-26T17:55:34.034Z,57.50
2017-09-26T17:58:02.268Z,57.50
2017-09-26T18:00:30.516Z,57.50
2017-09-26T18:02:58.762Z,57.60
2017-09-26T18:05:27.107Z,57.50
2017-09-26T18:07:55.434Z,57.50
2017-09-26T18:10:24.210Z,57.60
2017-09-26T18:12:52.648Z,57.50
2017-09-26T18:15:20.987Z,57.50
2017-09-26T18:17:49.271Z,57.50
2017-09-26T18:20:17.523Z,57.60
2017-09-26T18:22:45.805Z,57.50
2017-09-26T18:25:14.042Z,57.60
2017-09-26T18:27:42.295Z,57.60
2017-09-26T18:30:10.548Z,57.60
2017-09-26T18:32:38.800Z,57.50
2017-09-26T18:35:07.055Z,57.50
2017-09-26T18:37:35.391Z,57.50
2017-09-26T18:40:04.396Z,57.50
2017-09-26T18:42:32.617Z,57.30
2017-09-26T18:45:00.889Z,57.40
2017-09-26T18:47:29.176Z,57.40
2017-09-26T18:49:57.456Z,57.30
2017-09-26T18:52:25.871Z,57.30
2017-09-26T18:54:54.175Z,57.30
2017-09-26T18:57:22.563Z,57.30
2017-09-26T18:59:50.917Z,57.30
2017-09-26T19:02:19.243Z,57.30
2017-09-26T19:04:47.595Z,57.30
2017-09-26T19:07:15.954Z,57.30
2017-09-26T19:09:49.008Z,57.30
2017-09-26T19:12:19.053Z,57.30
2017-09-26T19:14:47.597Z,57.30
2017-09-26T19:17:16.053Z,57.30
2017-09-26T19:19:45.201Z,57.30
2017-09-26T19:22:14.459Z,57.30
2017-09-26T19:24:42.791Z,57.30
2017-09-26T19:27:11.758Z,57.20
2017-09-26T19:29:43.645Z,57.20
2017-09-26T19:32:12.748Z,57.20
2017-09-26T19:34:41.021Z,57.30
2017-09-26T19:37:09.261Z,57.30
2017-09-26T19:39:37.577Z,57.30
2017-09-26T19:42:06.016Z,57.30
2017-09-26T19:44:34.251Z,57.20
2017-09-26T19:47:02.544Z,57.20
2017-09-26T19:49:33.608Z,57.20
2017-09-26T19:52:03.030Z,57.20
2017-09-26T19:54:32.286Z,57.20
2017-09-26T19:57:01.430Z,57.20
2017-09-26T19:59:29.688Z,57.20
2017-09-26T20:01:58.103Z,57.20
2017-09-26T20:04:26.418Z,57.20
2017-09-26T20:06:55.396Z,57.30
2017-09-26T20:09:23.649Z,57.30
2017-09-26T20:11:51.988Z,57.30
2017-09-26T20:14:20.611Z,57.20
2017-09-26T20:16:48.947Z,57.20
2017-09-26T20:19:17.219Z,57.10
2017-09-26T20:21:45.519Z,57.20
2017-09-26T20:24:13.897Z,57.10
2017-09-26T20:26:42.283Z,57.10
2017-09-26T20:29:10.538Z,57.20
2017-09-26T20:31:38.816Z,57.10
2017-09-26T20:34:07.101Z,57.10
2017-09-26T20:36:35.399Z,57.00
2017-09-26T20:39:03.625Z,57.00
2017-09-26T20:41:31.892Z,57.00
2017-09-26T20:44:00.134Z,57.00
2017-09-26T20:46:28.390Z,57.10
2017-09-26T20:49:05.482Z,57.00
2017-09-26T20:51:33.721Z,57.00
2017-09-26T20:54:01.955Z,57.00
2017-09-26T20:56:32.075Z,57.50
2017-09-26T20:59:00.277Z,56.90
2017-09-26T21:01:28.590Z,56.90
2017-09-26T21:03:56.870Z,56.90
2017-09-26T21:06:25.129Z,57.00
2017-09-26T21:08:53.480Z,57.00
2017-09-26T21:11:22.113Z,56.90
2017-09-26T21:13:50.436Z,56.90
2017-09-26T21:16:18.655Z,56.80
2017-09-26T21:18:47.228Z,56.80
2017-09-26T21:21:15.438Z,56.80
2017-09-26T21:23:43.648Z,56.80
2017-09-26T21:26:11.936Z,56.80
2017-09-26T21:28:40.204Z,56.80
2017-09-26T21:31:08.484Z,56.90
2017-09-26T21:33:37.480Z,56.90
2017-09-26T21:36:06.485Z,56.80
2017-09-26T21:38:34.715Z,56.80
2017-09-26T21:41:04.430Z,56.80
2017-09-26T21:46:07.567Z,56.70
2017-09-26T21:48:35.796Z,56.70
2017-09-26T21:51:05.601Z,56.70
2017-09-26T21:53:34.851Z,56.70
2017-09-26T21:56:03.226Z,56.70
2017-09-26T21:58:31.481Z,56.60
2017-09-26T22:01:00.771Z,56.60
2017-09-26T22:03:29.058Z,56.70
2017-09-26T22:05:57.277Z,56.80
2017-09-26T22:08:25.515Z,56.80
2017-09-26T22:10:53.752Z,56.80
2017-09-26T22:13:22.067Z,56.70
2017-09-26T22:15:50.300Z,56.70
2017-09-26T22:18:18.544Z,56.70
2017-09-26T22:20:46.800Z,56.70
2017-09-26T22:23:15.031Z,56.70
2017-09-26T22:25:44.147Z,56.70
2017-09-26T22:28:12.389Z,56.70
2017-09-26T22:30:40.626Z,56.70
2017-09-26T22:33:08.877Z,56.70
2017-09-26T22:35:37.528Z,56.70
2017-09-26T22:38:06.615Z,56.70
2017-09-26T22:40:35.657Z,56.70
2017-09-26T22:43:03.933Z,56.70
2017-09-26T22:45:32.205Z,56.80
2017-09-26T22:48:00.485Z,56.80
2017-09-26T22:50:28.852Z,56.90
2017-09-26T22:52:57.393Z,56.90
2017-09-26T22:55:25.757Z,57.00
2017-09-26T22:57:54.322Z,56.90
2017-09-26T23:00:23.430Z,56.90
2017-09-26T23:02:52.898Z,56.80
2017-09-26T23:05:21.856Z,56.90
2017-09-26T23:07:50.167Z,56.80
2017-09-26T23:10:20.188Z,56.80
2017-09-26T23:12:48.658Z,56.80
2017-09-26T23:15:16.995Z,56.80
2017-09-26T23:17:45.303Z,56.80
2017-09-26T23:20:14.034Z,56.80
2017-09-26T23:22:43.226Z,56.80
2017-09-26T23:25:12.555Z,56.80
2017-09-26T23:27:40.940Z,56.70
2017-09-26T23:30:10.245Z,56.70
2017-09-26T23:32:39.215Z,56.70
2017-09-26T23:35:07.532Z,56.80
2017-09-26T23:37:35.898Z,56.70
2017-09-26T23:40:05.066Z,56.70
2017-09-26T23:42:33.395Z,57.30
2017-09-26T23:45:01.700Z,56.70
2017-09-26T23:47:33.021Z,56.80
2017-09-26T23:50:01.332Z,56.80
2017-09-26T23:52:30.488Z,56.80
2017-09-26T23:55:00.052Z,56.80
2017-09-26T23:57:28.452Z,56.80
2017-09-26T23:59:56.741Z,56.90
